< Cyclone 201204 2012 Season Cyclone 201211 >
Cyclone 201207 (Heidi)
General InformationTrack Information on Google MapsDetailed Wind InformationList of All Images || ResourceGoogle EarthGE AnimationAtom FeedGeoJSON
Detalied Best Track (Time Zone = UTC)
Year Month Day Hour Lat. Long. Pressure (hPa) Wind (kt) Class Image Chart
2012 1 9 00 -11.9 118.0 1004 0 0 Image --
2012 1 9 06 -12.0 117.8 1004 25 2 Image --
2012 1 9 10 -12.1 120.0 1004 20 2 Image --
2012 1 9 12 -12.2 119.9 1004 20 2 Image --
2012 1 9 18 -13.2 119.6 1002 25 2 Image --
2012 1 10 00 -14.4 119.5 1002 25 2 Image --
2012 1 10 06 -15.4 119.5 1000 30 2 Image --
2012 1 10 12 -16.5 119.5 995 40 3 Image --
2012 1 10 15 -16.9 119.4 993 45 3 Image --
2012 1 10 18 -17.5 119.4 990 50 4 Image --
2012 1 11 00 -18.2 119.4 984 55 4 Image --
2012 1 11 03 -18.7 119.1 984 55 4 Image --
2012 1 11 06 -19.0 118.9 980 55 4 Image --
2012 1 11 12 -19.4 118.9 972 65 5 Image --
2012 1 11 13 -19.5 118.9 968 70 5 Image --
2012 1 11 14 -19.7 118.9 968 70 5 Image --
2012 1 11 15 -19.7 118.8 968 70 5 Image --
2012 1 11 16 -19.8 118.8 964 75 5 Image --
2012 1 11 17 -19.9 118.8 964 75 5 Image --
2012 1 11 18 -20.0 118.8 960 80 5 Image --
2012 1 11 20 -20.2 118.7 960 80 5 Image --
2012 1 11 21 -20.3 118.7 964 75 5 Image --
2012 1 12 00 -20.6 118.6 974 65 5 Image --
2012 1 12 03 -21.0 118.4 980 55 4 Image --
2012 1 12 06 -21.3 118.3 982 50 4 Image --
2012 1 12 09 -21.7 118.2 990 40 3 Image --
2012 1 12 12 -22.0 118.2 995 35 3 Image --
2012 1 12 15 -22.5 118.2 998 30 2 Image --
2012 1 12 18 -23.0 118.0 1000 30 2 Image --
2012 1 13 00 -24.1 117.7 1000 25 2 Image --
2012 1 13 06 -24.9 117.7 1000 25 2 Image --
2012 1 13 08 -25.1 117.5 998 25 2 Image --
< Cyclone 201204 2012 Season Cyclone 201211 >

Help